Time;durP1;ratioP1;P1;durP2;ratioP2;P2;SDS_P1;SDS_P2;PMS_P1;PMS_P2;Temp;Humidity;BMP_temperature;BMP_pressure;BME280_temperature;BME280_humidity;BME280_pressure;Samples;Min_cycle;Max_cycle;Signal;HPM_P1;HPM_P2
2021/12/02 00:00:53;;;;;;;2.33;1.80;;;5.50;99.90;;;;;;5021957;28;20030;-71
2021/12/02 00:03:18;;;;;;;1.90;1.60;;;5.50;99.90;;;;;;5027273;28;20013;-71
2021/12/02 00:05:44;;;;;;;3.20;1.63;;;5.50;99.90;;;;;;5028845;28;20064;-71
2021/12/02 00:08:10;;;;;;;2.42;1.58;;;5.50;99.90;;;;;;5019413;28;20484;-71
2021/12/02 00:10:36;;;;;;;2.90;1.85;;;5.40;99.90;;;;;;5025788;28;20078;-72
2021/12/02 00:13:03;;;;;;;2.13;1.60;;;5.50;99.90;;;;;;5026499;28;20022;-71
2021/12/02 00:15:35;;;;;;;2.55;1.65;;;5.50;99.90;;;;;;5026262;28;20400;-71
2021/12/02 00:18:29;;;;;;;3.10;1.92;;;5.50;99.90;;;;;;5024611;28;20022;-71
2021/12/02 00:21:07;;;;;;;2.17;1.65;;;5.50;99.90;;;;;;5023620;28;20113;-71
2021/12/02 00:23:49;;;;;;;2.10;1.60;;;5.40;99.90;;;;;;5028686;28;20075;-72
2021/12/02 00:26:17;;;;;;;2.13;1.67;;;5.40;99.90;;;;;;5032975;28;20021;-71
2021/12/02 00:28:43;;;;;;;2.10;1.77;;;5.40;99.90;;;;;;5024822;28;20387;-71
2021/12/02 00:31:15;;;;;;;3.38;1.80;;;5.40;99.90;;;;;;5026279;28;20049;-71
2021/12/02 00:33:45;;;;;;;4.32;1.90;;;5.40;99.90;;;;;;5025250;28;20026;-72
2021/12/02 00:36:16;;;;;;;2.10;1.50;;;5.40;99.90;;;;;;5025506;28;20160;-71
2021/12/02 00:38:43;;;;;;;2.90;1.75;;;5.40;99.90;;;;;;5024702;28;20022;-72
2021/12/02 00:41:14;;;;;;;2.08;1.67;;;5.50;99.90;;;;;;5025896;28;20017;-72
2021/12/02 00:43:39;;;;;;;3.50;2.00;;;5.40;99.90;;;;;;5024617;28;20018;-71
2021/12/02 00:46:08;;;;;;;2.60;1.65;;;5.40;99.90;;;;;;5022309;28;20022;-72
2021/12/02 00:48:36;;;;;;;2.97;1.80;;;5.40;99.90;;;;;;5023236;28;20059;-72
2021/12/02 00:51:02;;;;;;;4.78;1.90;;;5.40;99.90;;;;;;5025783;28;20391;-72
2021/12/02 00:53:30;;;;;;;2.70;1.90;;;5.40;99.90;;;;;;5026334;28;20022;-71
2021/12/02 00:55:55;;;;;;;2.50;1.77;;;5.40;99.90;;;;;;5024913;28;20017;-71
2021/12/02 00:58:23;;;;;;;2.63;1.88;;;5.40;99.90;;;;;;5025787;28;20491;-71
2021/12/02 01:00:51;;;;;;;2.03;1.83;;;5.40;99.90;;;;;;5023888;28;20083;-71
2021/12/02 01:03:17;;;;;;;3.05;2.10;;;5.40;99.90;;;;;;5025962;28;20017;-71
2021/12/02 01:05:43;;;;;;;2.63;1.80;;;5.30;99.90;;;;;;5031262;28;20025;-71
2021/12/02 01:08:08;;;;;;;3.20;2.20;;;5.30;99.90;;;;;;5022138;28;20101;-71
2021/12/02 01:10:34;;;;;;;3.20;2.17;;;5.40;99.90;;;;;;5033570;28;20029;-71
2021/12/02 01:13:00;;;;;;;5.13;2.00;;;5.40;99.90;;;;;;5018077;28;20080;-75
2021/12/02 01:15:26;;;;;;;3.40;2.20;;;5.30;99.90;;;;;;5027514;28;20022;-70
2021/12/02 01:17:53;;;;;;;3.15;2.33;;;5.30;99.90;;;;;;5022807;28;20078;-71
2021/12/02 01:20:19;;;;;;;2.92;2.08;;;5.30;99.90;;;;;;5027939;28;20025;-70
2021/12/02 01:22:47;;;;;;;4.10;2.45;;;5.30;99.90;;;;;;5024721;28;20044;-70
2021/12/02 01:25:16;;;;;;;3.17;2.20;;;5.30;99.90;;;;;;5024967;28;20021;-70
2021/12/02 01:27:46;;;;;;;2.95;2.08;;;5.30;99.90;;;;;;5023688;28;20034;-71
2021/12/02 01:30:12;;;;;;;3.92;2.63;;;5.30;99.90;;;;;;5024854;28;20427;-70
2021/12/02 01:32:39;;;;;;;2.75;2.13;;;5.30;99.90;;;;;;5024953;28;20030;-72
2021/12/02 01:35:05;;;;;;;3.45;2.10;;;5.10;99.90;;;;;;5024844;28;20068;-71
2021/12/02 01:37:31;;;;;;;4.40;2.28;;;5.20;99.90;;;;;;5024064;28;20106;-71
2021/12/02 01:39:58;;;;;;;2.03;1.83;;;5.20;99.90;;;;;;5029531;28;20026;-71
2021/12/02 01:42:26;;;;;;;2.45;1.90;;;5.20;99.90;;;;;;5020275;28;20076;-70
2021/12/02 01:44:57;;;;;;;4.32;2.40;;;5.20;99.90;;;;;;5028081;28;20075;-71
2021/12/02 01:47:29;;;;;;;4.63;2.40;;;5.20;99.90;;;;;;5021409;28;20022;-70
2021/12/02 01:49:58;;;;;;;4.78;2.50;;;5.20;99.90;;;;;;5029451;28;20496;-70
2021/12/02 01:52:30;;;;;;;4.22;2.40;;;5.10;99.90;;;;;;5023643;28;20017;-73
2021/12/02 01:55:06;;;;;;;2.50;2.30;;;5.00;99.90;;;;;;5021332;28;20332;-70
2021/12/02 01:57:33;;;;;;;3.05;2.45;;;5.20;99.90;;;;;;5021345;28;20049;-70
2021/12/02 02:00:20;;;;;;;4.20;2.33;;;5.10;99.90;;;;;;5020795;28;20066;-70
2021/12/02 02:02:46;;;;;;;;;;;5.10;99.90;;;;;;5031389;28;20116;-70
2021/12/02 02:05:15;;;;;;;6.88;2.85;;;5.10;99.90;;;;;;5032509;28;19905;-70
2021/12/02 02:07:49;;;;;;;3.65;2.70;;;5.00;99.90;;;;;;5023433;28;20518;-71
2021/12/02 02:10:16;;;;;;;5.50;2.92;;;5.00;99.90;;;;;;5020485;28;20037;-72
2021/12/02 02:12:41;;;;;;;5.88;2.97;;;5.00;99.90;;;;;;5031448;28;20029;-70
2021/12/02 02:15:07;;;;;;;3.35;2.90;;;5.00;99.90;;;;;;5024894;28;20021;-72
2021/12/02 02:17:42;;;;;;;3.38;2.90;;;4.90;99.90;;;;;;5032470;28;20083;-71
2021/12/02 02:20:10;;;;;;;5.72;3.03;;;4.90;99.90;;;;;;5018267;28;20013;-72
2021/12/02 02:22:36;;;;;;;4.78;2.85;;;4.90;99.90;;;;;;5024089;28;20148;-71
2021/12/02 02:25:03;;;;;;;3.45;3.03;;;4.90;99.90;;;;;;5023927;28;20492;-70
2021/12/02 02:27:28;;;;;;;7.03;3.67;;;4.90;99.90;;;;;;5023040;28;20104;-70
2021/12/02 02:29:54;;;;;;;5.60;3.65;;;4.70;99.90;;;;;;5023018;28;20115;-70
2021/12/02 02:32:25;;;;;;;6.28;3.80;;;4.70;99.90;;;;;;5024662;28;20018;-70
2021/12/02 02:34:50;;;;;;;5.60;4.00;;;4.70;99.90;;;;;;5023173;28;20022;-69
2021/12/02 02:37:16;;;;;;;5.22;4.35;;;4.80;99.90;;;;;;5024745;28;20022;-70
2021/12/02 02:39:41;;;;;;;4.45;4.00;;;4.70;99.90;;;;;;5028386;28;20061;-71
2021/12/02 02:42:09;;;;;;;4.22;3.83;;;4.70;99.90;;;;;;5023542;28;20053;-70
2021/12/02 02:44:35;;;;;;;5.40;4.20;;;4.70;99.90;;;;;;5028044;28;20026;-71
2021/12/02 02:47:01;;;;;;;10.60;5.00;;;4.70;99.90;;;;;;5020364;28;20545;-71
2021/12/02 02:49:27;;;;;;;7.30;5.10;;;4.70;99.90;;;;;;5027324;28;20029;-70
2021/12/02 02:51:52;;;;;;;8.57;4.93;;;4.70;99.90;;;;;;5020218;28;20131;-70
2021/12/02 02:54:19;;;;;;;6.50;5.45;;;4.60;99.90;;;;;;5023322;28;20026;-70
2021/12/02 02:57:00;;;;;;;5.97;5.03;;;4.60;99.90;;;;;;5023545;28;20099;-70
2021/12/02 03:02:20;;;;;;;6.38;5.25;;;4.60;99.90;;;;;;5026319;28;20057;-71
2021/12/02 03:07:29;;;;;;;8.32;4.97;;;4.50;99.90;;;;;;5011980;28;20022;-71
2021/12/02 03:10:02;;;;;;;7.60;4.97;;;4.50;99.90;;;;;;5011865;28;20032;-71
2021/12/02 03:17:30;;;;;;;4.00;3.60;;;4.50;99.90;;;;;;5012038;28;20034;-72
2021/12/02 03:19:55;;;;;;;6.50;3.53;;;4.40;99.90;;;;;;5018352;28;20109;-73
2021/12/02 03:22:21;;;;;;;5.20;3.22;;;4.40;99.90;;;;;;5031515;28;20104;-73
2021/12/02 03:24:46;;;;;;;4.10;2.80;;;4.20;99.90;;;;;;5031215;28;20113;-72
2021/12/02 03:27:12;;;;;;;2.85;2.35;;;4.30;99.90;;;;;;5031481;28;20487;-73
2021/12/02 03:29:39;;;;;;;3.63;2.50;;;4.30;99.90;;;;;;5031460;28;20029;-73
2021/12/02 03:32:05;;;;;;;4.53;2.85;;;4.20;99.90;;;;;;5017349;28;20068;-73
2021/12/02 03:34:31;;;;;;;3.50;2.47;;;4.20;99.90;;;;;;5031162;28;20061;-72
2021/12/02 03:36:56;;;;;;;4.57;2.60;;;4.20;99.90;;;;;;5031415;28;20495;-72
2021/12/02 03:39:22;;;;;;;3.88;2.65;;;4.10;99.90;;;;;;5024559;28;20068;-72
2021/12/02 03:41:48;;;;;;;3.13;2.53;;;4.10;99.90;;;;;;5011643;28;20026;-72
2021/12/02 03:44:14;;;;;;;3.83;2.40;;;4.10;99.90;;;;;;5011409;28;20026;-72
2021/12/02 03:46:40;;;;;;;3.42;2.80;;;4.10;99.90;;;;;;5013633;28;20104;-73
2021/12/02 03:49:06;;;;;;;4.45;2.80;;;4.10;99.90;;;;;;5015414;28;20034;-72
2021/12/02 03:51:32;;;;;;;4.53;2.72;;;4.00;99.90;;;;;;5014100;28;20118;-73
2021/12/02 03:53:58;;;;;;;2.97;2.67;;;4.00;99.90;;;;;;5013880;28;20058;-72
2021/12/02 03:56:24;;;;;;;4.00;2.60;;;4.00;99.90;;;;;;5028521;28;20037;-72
2021/12/02 03:58:51;;;;;;;2.95;2.47;;;3.90;99.90;;;;;;5035002;28;20024;-72
2021/12/02 04:01:18;;;;;;;4.63;2.70;;;4.00;99.90;;;;;;5033681;28;20022;-72
2021/12/02 04:03:43;;;;;;;4.00;2.72;;;4.00;99.90;;;;;;5035008;28;20068;-72
2021/12/02 04:06:10;;;;;;;3.30;2.70;;;4.00;99.90;;;;;;5033414;28;20029;-72
2021/12/02 04:08:45;;;;;;;8.35;3.10;;;3.90;99.90;;;;;;5034857;28;20030;-72
2021/12/02 04:14:09;;;;;;;5.15;3.03;;;3.90;99.90;;;;;;5015066;28;20042;-73
2021/12/02 04:16:38;;;;;;;4.63;3.33;;;3.90;99.90;;;;;;5014942;28;20022;-73
2021/12/02 04:19:06;;;;;;;4.38;2.97;;;4.00;99.90;;;;;;5014831;28;20045;-72
2021/12/02 04:21:32;;;;;;;6.57;2.60;;;3.90;99.90;;;;;;5014879;28;20029;-72
2021/12/02 04:23:58;;;;;;;5.93;3.20;;;3.90;99.90;;;;;;5014739;28;20542;-72
2021/12/02 04:26:24;;;;;;;3.83;2.97;;;3.90;99.90;;;;;;5013502;28;20032;-72
2021/12/02 04:28:50;;;;;;;5.50;3.40;;;3.90;99.90;;;;;;5014872;28;20022;-71
2021/12/02 04:31:15;;;;;;;5.55;3.33;;;4.00;99.90;;;;;;5013423;28;20018;-71
2021/12/02 04:33:41;;;;;;;6.75;3.00;;;4.10;99.90;;;;;;5026691;28;20030;-70
2021/12/02 04:36:07;;;;;;;5.30;3.40;;;4.00;99.90;;;;;;5020935;28;20446;-72
2021/12/02 04:38:33;;;;;;;4.22;3.00;;;4.00;99.90;;;;;;5034365;28;20036;-72
2021/12/02 04:40:58;;;;;;;3.53;3.22;;;4.00;99.90;;;;;;5014429;28;20069;-71
2021/12/02 04:43:24;;;;;;;5.32;3.28;;;3.90;99.90;;;;;;5027608;28;20025;-72
2021/12/02 04:45:50;;;;;;;5.78;3.80;;;4.10;99.90;;;;;;5032507;28;20643;-71
2021/12/02 04:48:16;;;;;;;3.63;2.80;;;4.00;99.90;;;;;;5014403;28;20030;-71
2021/12/02 04:50:42;;;;;;;3.25;2.88;;;3.90;99.90;;;;;;5014173;28;20022;-73
2021/12/02 04:53:08;;;;;;;5.53;3.58;;;3.90;99.90;;;;;;5014556;28;20084;-75
2021/12/02 04:55:33;;;;;;;5.53;3.63;;;4.00;99.90;;;;;;5013850;28;20103;-73
2021/12/02 04:57:59;;;;;;;5.90;3.80;;;3.90;99.90;;;;;;5013478;28;20511;-72
2021/12/02 05:00:25;;;;;;;6.65;3.85;;;3.90;99.90;;;;;;5013872;28;20033;-72
2021/12/02 05:02:51;;;;;;;3.58;3.00;;;4.00;99.90;;;;;;5014139;28;20026;-73
2021/12/02 05:05:16;;;;;;;4.38;3.30;;;4.00;99.90;;;;;;5012563;28;20034;-72
2021/12/02 05:07:42;;;;;;;4.68;4.13;;;4.00;99.90;;;;;;5026692;28;20026;-71
2021/12/02 05:10:08;;;;;;;4.38;3.97;;;4.00;99.90;;;;;;5020527;28;20471;-71
2021/12/02 05:12:34;;;;;;;5.57;3.92;;;4.00;99.90;;;;;;5020948;28;20061;-71
2021/12/02 05:15:00;;;;;;;6.25;4.57;;;4.00;99.90;;;;;;5013612;28;20030;-72
2021/12/02 05:17:26;;;;;;;7.03;5.30;;;4.00;99.90;;;;;;5026501;28;20029;-72
2021/12/02 05:19:51;;;;;;;5.38;3.92;;;4.00;99.90;;;;;;5014409;28;20049;-72
2021/12/02 05:22:17;;;;;;;7.32;3.92;;;4.00;99.90;;;;;;5013772;28;20057;-71
2021/12/02 05:24:42;;;;;;;10.07;6.15;;;3.90;99.90;;;;;;5013547;28;20080;-71
2021/12/02 05:27:08;;;;;;;6.25;3.25;;;4.10;99.90;;;;;;5012525;28;20571;-71
2021/12/02 05:29:33;;;;;;;6.32;3.33;;;3.90;99.90;;;;;;5012150;28;20025;-71
2021/12/02 05:32:00;;;;;;;4.75;2.90;;;4.00;99.90;;;;;;5013703;28;20104;-73
2021/12/02 05:34:26;;;;;;;4.95;3.35;;;3.70;99.90;;;;;;5013312;28;20097;-73
2021/12/02 05:36:51;;;;;;;7.93;4.57;;;3.50;99.90;;;;;;5012149;28;20114;-71
2021/12/02 05:39:17;;;;;;;7.72;3.25;;;3.20;99.90;;;;;;5013372;28;20041;-73
2021/12/02 05:41:43;;;;;;;8.13;4.55;;;3.10;99.90;;;;;;5013458;28;20076;-71
2021/12/02 05:44:08;;;;;;;10.23;3.72;;;3.20;99.90;;;;;;5013106;28;20029;-71
2021/12/02 05:46:34;;;;;;;4.53;3.45;;;3.00;99.90;;;;;;5013185;28;20491;-71
2021/12/02 05:49:00;;;;;;;8.63;3.33;;;3.10;99.90;;;;;;5013117;28;20022;-72
2021/12/02 05:51:26;;;;;;;8.05;3.42;;;3.20;99.90;;;;;;5013307;28;20022;-73
2021/12/02 05:53:51;;;;;;;4.90;3.22;;;3.10;99.90;;;;;;5013084;28;20029;-71
2021/12/02 05:56:17;;;;;;;4.70;3.05;;;3.10;99.90;;;;;;5012959;28;20025;-71
2021/12/02 05:58:42;;;;;;;6.13;3.45;;;3.10;99.90;;;;;;5013081;28;20062;-72
2021/12/02 06:01:08;;;;;;;6.15;3.13;;;3.10;99.90;;;;;;5012859;28;20030;-72
2021/12/02 06:03:37;;;;;;;6.85;3.70;;;3.10;99.90;;;;;;5012954;28;20424;-70
2021/12/02 06:06:03;;;;;;;3.80;2.80;;;3.20;99.90;;;;;;5012843;28;20026;-72
2021/12/02 06:08:30;;;;;;;7.72;3.00;;;3.00;99.90;;;;;;5026232;28;20022;-71
2021/12/02 06:10:55;;;;;;;6.50;3.67;;;3.10;99.90;;;;;;5024435;28;20029;-71
2021/12/02 06:13:21;;;;;;;7.15;3.28;;;3.20;99.90;;;;;;5019505;28;20021;-71
2021/12/02 06:15:46;;;;;;;5.18;3.97;;;3.30;99.90;;;;;;5020799;28;20400;-70
2021/12/02 06:18:12;;;;;;;7.40;4.00;;;3.10;99.90;;;;;;5025977;28;20550;-71
2021/12/02 06:20:37;;;;;;;5.95;3.70;;;3.10;99.90;;;;;;5023489;28;20079;-71
2021/12/02 06:23:03;;;;;;;7.90;4.03;;;3.10;99.90;;;;;;5019245;28;20518;-72
2021/12/02 06:27:57;;;;;;;8.75;4.60;;;3.20;99.90;;;;;;5012814;28;20033;-71
2021/12/02 06:30:26;;;;;;;8.38;4.05;;;3.20;99.90;;;;;;5023064;28;20025;-71
2021/12/02 06:32:52;;;;;;;6.80;4.00;;;3.20;99.90;;;;;;5019002;28;20458;-71
2021/12/02 06:35:17;;;;;;;6.32;4.45;;;3.20;99.90;;;;;;5019973;28;20073;-72
2021/12/02 06:37:45;;;;;;;6.45;4.03;;;3.20;99.90;;;;;;5011404;28;20026;-72
2021/12/02 06:40:12;;;;;;;9.15;4.47;;;3.10;99.90;;;;;;5012274;28;20022;-71
2021/12/02 06:42:38;;;;;;;11.98;8.25;;;3.00;99.90;;;;;;5011188;28;20026;-72
2021/12/02 06:45:04;;;;;;;8.50;4.72;;;3.00;99.90;;;;;;5012150;28;20425;-72
2021/12/02 06:47:33;;;;;;;4.97;3.28;;;2.90;99.90;;;;;;5012011;28;20049;-72
2021/12/02 06:50:01;;;;;;;4.35;3.05;;;2.80;99.90;;;;;;5012078;28;20484;-73
2021/12/02 06:52:27;;;;;;;6.68;3.67;;;2.70;99.90;;;;;;5010894;28;20038;-71
2021/12/02 06:54:54;;;;;;;5.65;3.60;;;2.60;99.90;;;;;;5025224;28;20590;-71
2021/12/02 06:57:20;;;;;;;5.03;2.90;;;2.60;99.90;;;;;;5018655;28;20025;-71
2021/12/02 06:59:45;;;;;;;5.90;4.10;;;2.40;99.90;;;;;;5012300;28;20052;-73
2021/12/02 07:02:11;;;;;;;8.73;4.07;;;2.40;99.90;;;;;;5017248;28;20032;-71
2021/12/02 07:04:36;;;;;;;5.03;3.63;;;2.20;99.90;;;;;;5011835;28;20036;-73
2021/12/02 07:07:02;;;;;;;9.55;5.50;;;2.20;99.90;;;;;;5031594;28;20025;-73
2021/12/02 07:09:28;;;;;;;8.77;5.63;;;2.00;99.90;;;;;;5030320;28;20037;-73
2021/12/02 07:11:53;;;;;;;709.08;643.13;;;2.00;99.90;;;;;;5015591;28;20053;-73
2021/12/02 07:14:20;;;;;;;429.40;390.73;;;1.90;99.90;;;;;;5014955;28;20462;-73
2021/12/02 07:16:46;;;;;;;46.60;41.78;;;2.00;99.90;;;;;;5015277;28;20105;-71
2021/12/02 07:19:12;;;;;;;25.50;23.00;;;1.90;99.90;;;;;;5012694;28;20105;-73
2021/12/02 07:21:40;;;;;;;30.92;28.05;;;1.70;99.90;;;;;;5020410;28;20051;-71
2021/12/02 07:24:07;;;;;;;19.35;17.38;;;1.50;99.90;;;;;;5016911;28;20377;-73
2021/12/02 07:26:34;;;;;;;6.82;5.75;;;1.60;99.90;;;;;;5017027;28;20026;-71
2021/12/02 07:29:00;;;;;;;6.43;5.82;;;1.50;99.90;;;;;;5018136;28;20026;-70
2021/12/02 07:31:34;;;;;;;11.52;8.10;;;1.70;99.90;;;;;;5026051;28;20061;-71
2021/12/02 07:34:02;;;;;;;11.00;7.22;;;1.70;99.90;;;;;;5024491;28;20026;-71
2021/12/02 07:36:29;;;;;;;26.65;24.25;;;1.70;99.90;;;;;;5033700;28;20060;-70
2021/12/02 07:38:55;;;;;;;21.73;16.08;;;1.50;99.90;;;;;;5021972;28;20484;-72
2021/12/02 07:41:21;;;;;;;9.38;7.43;;;1.50;99.90;;;;;;5025878;28;20510;-72
2021/12/02 07:43:47;;;;;;;12.80;8.88;;;1.50;99.90;;;;;;5034446;28;20511;-72
2021/12/02 07:46:13;;;;;;;13.27;8.52;;;1.40;99.90;;;;;;5025849;28;20042;-70
2021/12/02 07:48:38;;;;;;;30.80;17.42;;;1.50;99.90;;;;;;5021699;28;20057;-72
2021/12/02 07:51:11;;;;;;;14.93;12.32;;;1.40;99.90;;;;;;5022582;28;20423;-71
2021/12/02 07:53:40;;;;;;;18.73;12.88;;;1.30;99.90;;;;;;5019438;28;20029;-68
2021/12/02 07:56:09;;;;;;;23.13;15.40;;;1.30;99.90;;;;;;5020935;28;20021;-71
2021/12/02 07:58:35;;;;;;;29.83;21.40;;;1.40;99.90;;;;;;5022919;28;20108;-71
2021/12/02 08:01:02;;;;;;;103.50;52.95;;;1.40;99.90;;;;;;5028635;28;20120;-71
2021/12/02 08:03:29;;;;;;;34.90;25.90;;;1.20;99.90;;;;;;5019671;28;20487;-71
2021/12/02 08:05:55;;;;;;;34.67;27.77;;;1.20;99.90;;;;;;5017064;28;20049;-71
2021/12/02 08:08:20;;;;;;;23.65;20.02;;;1.40;99.90;;;;;;5018360;28;20061;-71
2021/12/02 08:10:46;;;;;;;17.80;13.65;;;1.40;99.90;;;;;;5018824;28;20076;-72
2021/12/02 08:13:15;;;;;;;20.80;13.95;;;1.30;99.90;;;;;;5020388;28;20113;-71
2021/12/02 08:15:42;;;;;;;13.73;10.95;;;1.40;99.90;;;;;;5018821;28;20026;-72
2021/12/02 08:18:09;;;;;;;19.20;12.07;;;1.50;99.90;;;;;;5024626;28;20570;-72
2021/12/02 08:20:35;;;;;;;37.83;22.95;;;1.40;99.90;;;;;;5024660;28;20427;-71
2021/12/02 08:23:01;;;;;;;27.67;18.88;;;1.30;99.90;;;;;;5020920;28;20022;-71
2021/12/02 08:25:29;;;;;;;11.35;9.93;;;1.10;99.90;;;;;;5017656;28;20036;-71
2021/12/02 08:27:59;;;;;;;27.02;15.00;;;1.20;99.90;;;;;;5023709;28;20037;-71
2021/12/02 08:30:26;;;;;;;19.88;15.25;;;1.30;99.90;;;;;;5023958;28;20093;-71
2021/12/02 08:32:53;;;;;;;24.10;18.00;;;1.20;99.90;;;;;;5015808;28;20053;-71
2021/12/02 08:35:19;;;;;;;25.08;18.65;;;1.20;99.90;;;;;;5015039;28;20033;-71
2021/12/02 08:37:47;;;;;;;38.00;26.30;;;1.20;99.90;;;;;;5018684;28;20029;-71
2021/12/02 08:40:18;;;;;;;21.85;17.60;;;1.30;99.90;;;;;;5018730;28;20022;-71
2021/12/02 08:42:45;;;;;;;20.23;16.60;;;1.50;99.90;;;;;;5016856;28;20014;-71
2021/12/02 08:45:11;;;;;;;17.88;13.00;;;1.40;99.90;;;;;;5016500;28;20100;-71
2021/12/02 08:47:43;;;;;;;17.02;12.32;;;1.30;99.90;;;;;;5017855;28;20526;-72
2021/12/02 08:50:11;;;;;;;12.55;11.25;;;1.30;99.90;;;;;;5015095;28;20037;-71
2021/12/02 08:52:36;;;;;;;16.80;15.05;;;1.40;99.90;;;;;;5013656;28;20033;-71
2021/12/02 08:55:02;;;;;;;17.42;15.13;;;1.40;99.90;;;;;;5019476;28;20034;-72
2021/12/02 08:57:30;;;;;;;20.98;18.42;;;1.50;99.90;;;;;;5017355;28;20026;-74
2021/12/02 08:59:56;;;;;;;17.23;14.82;;;1.50;99.90;;;;;;5015478;28;20033;-74
2021/12/02 09:02:22;;;;;;;33.90;26.27;;;1.40;99.90;;;;;;5016921;28;20097;-73
2021/12/02 09:04:47;;;;;;;29.85;21.98;;;1.40;99.90;;;;;;5015316;28;20481;-71
2021/12/02 09:07:13;;;;;;;18.98;16.40;;;1.10;99.90;;;;;;5013528;28;20121;-71
2021/12/02 09:09:38;;;;;;;19.50;16.70;;;1.10;99.90;;;;;;5014315;28;20158;-73
2021/12/02 09:12:05;;;;;;;32.03;27.88;;;1.40;99.90;;;;;;5013376;28;20084;-72
2021/12/02 09:14:31;;;;;;;25.15;22.42;;;1.40;99.90;;;;;;5013841;28;20492;-72
2021/12/02 09:16:57;;;;;;;25.38;22.75;;;1.40;99.90;;;;;;5015389;28;20061;-72
2021/12/02 09:19:22;;;;;;;16.92;15.23;;;1.40;99.90;;;;;;5014656;28;20093;-72
2021/12/02 09:21:48;;;;;;;16.00;14.30;;;1.30;99.90;;;;;;5012965;28;20026;-73
2021/12/02 09:24:18;;;;;;;20.00;17.98;;;1.50;99.90;;;;;;5025380;28;20017;-72
2021/12/02 09:26:46;;;;;;;18.38;16.48;;;1.50;99.90;;;;;;5013839;28;20377;-72
2021/12/02 09:29:12;;;;;;;19.27;15.98;;;1.60;99.90;;;;;;5022878;28;20028;-71
2021/12/02 09:31:37;;;;;;;12.32;11.13;;;1.70;99.90;;;;;;5021186;28;20097;-73
2021/12/02 09:34:03;;;;;;;14.75;12.32;;;1.80;99.90;;;;;;5021686;28;20026;-72
2021/12/02 09:36:28;;;;;;;15.00;13.27;;;1.60;99.90;;;;;;5014625;28;20026;-72
2021/12/02 09:38:54;;;;;;;13.20;11.52;;;1.30;99.90;;;;;;5012902;28;20026;-72
2021/12/02 09:41:19;;;;;;;17.10;13.88;;;1.20;99.90;;;;;;5017087;28;20441;-72
2021/12/02 09:43:45;;;;;;;15.00;13.40;;;1.20;99.90;;;;;;5014018;28;20041;-71
2021/12/02 09:46:11;;;;;;;9.80;8.80;;;1.20;99.90;;;;;;5013796;28;20025;-72
2021/12/02 09:48:37;;;;;;;16.30;13.80;;;1.40;99.90;;;;;;5019678;28;20021;-71
2021/12/02 09:53:40;;;;;;;16.35;13.13;;;1.80;99.90;;;;;;5018198;28;20108;-72
2021/12/02 09:56:16;;;;;;;13.23;9.95;;;2.00;99.90;;;;;;5022291;28;20026;-72
2021/12/02 09:58:41;;;;;;;8.13;7.00;;;2.10;99.90;;;;;;5026233;28;20364;-72
2021/12/02 10:03:40;;;;;;;10.10;9.02;;;2.20;99.90;;;;;;5018095;28;20029;-72
2021/12/02 10:06:10;;;;;;;8.25;7.38;;;2.10;99.90;;;;;;5026633;28;20083;-72
2021/12/02 10:08:53;;;;;;;11.35;9.05;;;1.90;99.90;;;;;;5012592;28;20032;-71
2021/12/02 10:11:37;;;;;;;10.30;7.93;;;2.00;99.90;;;;;;5015400;28;20037;-72
2021/12/02 10:14:33;;;;;;;7.10;6.43;;;2.10;99.90;;;;;;5011131;28;20029;-72
2021/12/02 10:17:08;;;;;;;9.23;6.97;;;2.20;99.90;;;;;;5012042;28;20020;-72
2021/12/02 10:19:34;;;;;;;7.13;6.43;;;2.30;99.90;;;;;;5019070;28;20053;-68
2021/12/02 10:22:11;;;;;;;6.68;5.97;;;2.40;99.90;;;;;;5022960;28;20071;-71
2021/12/02 10:24:43;;;;;;;7.07;5.53;;;2.10;99.90;;;;;;5019747;28;20101;-71
2021/12/02 10:27:09;;;;;;;5.70;5.20;;;1.90;99.90;;;;;;5012627;28;20505;-71
2021/12/02 10:29:37;;;;;;;7.75;6.50;;;2.10;99.90;;;;;;5012044;28;20132;-71
2021/12/02 10:32:18;;;;;;;5.78;5.32;;;2.20;99.90;;;;;;5014784;28;20022;-72
2021/12/02 10:34:57;;;;;;;6.07;5.47;;;2.20;99.90;;;;;;5016421;28;20022;-72
2021/12/02 10:37:27;;;;;;;6.07;5.47;;;2.30;99.90;;;;;;5014209;28;20036;-71
2021/12/02 10:40:12;;;;;;;6.38;5.78;;;2.10;99.90;;;;;;5014841;28;20033;-71
2021/12/02 10:42:42;;;;;;;6.80;5.47;;;2.10;99.90;;;;;;5009559;28;20022;-71
2021/12/02 10:45:22;;;;;;;5.82;5.28;;;1.70;99.90;;;;;;5012690;28;20022;-72
2021/12/02 10:47:49;;;;;;;8.35;6.88;;;1.80;99.90;;;;;;5012242;28;20108;-72
2021/12/02 10:50:15;;;;;;;8.20;5.63;;;1.90;99.90;;;;;;5013444;28;20037;-72
2021/12/02 10:52:41;;;;;;;13.23;9.65;;;2.10;99.90;;;;;;5014053;28;20026;-72
2021/12/02 10:55:08;;;;;;;9.80;8.20;;;1.90;99.90;;;;;;5016098;28;20030;-72
2021/12/02 10:57:36;;;;;;;6.28;5.70;;;2.00;99.90;;;;;;5012420;28;20473;-72
2021/12/02 11:00:12;;;;;;;10.15;9.05;;;2.10;99.90;;;;;;5012455;28;20036;-72
2021/12/02 11:02:41;;;;;;;24.10;17.30;;;2.10;99.90;;;;;;5011258;28;20112;-72
2021/12/02 11:05:22;;;;;;;23.08;17.40;;;2.10;99.90;;;;;;5011814;28;20026;-73
2021/12/02 11:07:52;;;;;;;36.40;32.05;;;1.90;99.90;;;;;;5010289;28;20040;-71
2021/12/02 11:10:18;;;;;;;12.13;11.02;;;1.80;99.90;;;;;;5013262;28;20027;-72
2021/12/02 11:12:45;;;;;;;13.60;12.20;;;1.90;99.90;;;;;;5013604;28;20038;-72
2021/12/02 11:15:21;;;;;;;15.30;13.27;;;2.00;99.90;;;;;;5013353;28;20113;-72
2021/12/02 11:17:57;;;;;;;11.15;10.05;;;1.90;99.90;;;;;;5010540;28;20692;-73
2021/12/02 11:20:33;;;;;;;13.23;11.82;;;2.00;99.90;;;;;;5011994;28;20097;-73
2021/12/02 11:23:08;;;;;;;10.88;9.85;;;2.20;99.90;;;;;;5014393;28;20506;-72
2021/12/02 11:25:37;;;;;;;30.85;25.33;;;2.00;99.90;;;;;;5009872;28;20029;-72
2021/12/02 11:28:06;;;;;;;21.13;18.85;;;1.80;99.90;;;;;;5007713;28;20030;-71
2021/12/02 11:30:31;;;;;;;16.13;14.57;;;1.90;99.90;;;;;;5011615;28;20025;-72
2021/12/02 11:33:00;;;;;;;24.40;21.77;;;2.10;99.90;;;;;;5011462;28;20037;-72
2021/12/02 11:35:35;;;;;;;9.95;8.70;;;2.10;99.90;;;;;;5011681;28;20065;-71
2021/12/02 11:38:09;;;;;;;11.60;10.40;;;2.30;99.90;;;;;;5012106;28;20112;-73
2021/12/02 11:40:44;;;;;;;15.82;14.15;;;2.30;99.90;;;;;;5014537;28;20499;-72
2021/12/02 11:43:13;;;;;;;13.13;11.77;;;2.10;99.90;;;;;;5010654;28;20149;-72
2021/12/02 11:45:46;;;;;;;8.15;7.35;;;2.00;99.90;;;;;;5011065;28;20100;-72
2021/12/02 11:48:13;;;;;;;7.93;7.22;;;2.00;99.90;;;;;;5007664;28;20380;-72
2021/12/02 11:50:40;;;;;;;9.20;8.20;;;2.10;99.90;;;;;;5010195;28;20029;-72
2021/12/02 11:53:05;;;;;;;10.40;9.50;;;2.20;99.90;;;;;;5012733;28;20491;-72
2021/12/02 11:55:35;;;;;;;9.18;8.27;;;2.10;99.90;;;;;;5020107;28;20084;-71
2021/12/02 11:58:01;;;;;;;7.35;6.65;;;2.20;99.90;;;;;;5011494;28;20468;-71
2021/12/02 12:00:28;;;;;;;17.90;16.13;;;2.30;99.90;;;;;;5013344;28;20029;-71
2021/12/02 12:03:12;;;;;;;24.58;21.58;;;2.10;99.90;;;;;;5018324;28;20029;-71
2021/12/02 12:05:52;;;;;;;14.65;13.23;;;2.00;99.90;;;;;;5012393;28;20682;-71
2021/12/02 12:08:32;;;;;;;13.32;11.98;;;1.90;99.90;;;;;;5014458;28;20026;-72
2021/12/02 12:11:17;;;;;;;27.10;24.13;;;2.00;99.90;;;;;;5024162;28;20036;-72
2021/12/02 12:13:47;;;;;;;26.63;23.83;;;2.00;99.90;;;;;;5014548;28;20044;-72
2021/12/02 12:16:29;;;;;;;13.30;11.73;;;2.00;99.90;;;;;;5015639;28;20026;-72
2021/12/02 12:19:13;;;;;;;21.40;19.20;;;2.30;99.90;;;;;;5016258;28;20029;-72
2021/12/02 12:21:41;;;;;;;15.27;13.13;;;2.50;99.90;;;;;;5017941;28;20349;-72
2021/12/02 12:24:08;;;;;;;21.73;18.35;;;2.50;99.90;;;;;;5025514;28;20076;-72
2021/12/02 12:26:38;;;;;;;26.73;22.27;;;2.50;99.90;;;;;;5018641;28;20092;-72
2021/12/02 12:29:07;;;;;;;15.05;13.38;;;2.50;99.90;;;;;;5018799;28;20121;-73
2021/12/02 12:32:05;;;;;;;15.80;12.70;;;2.60;99.90;;;;;;5015222;28;20492;-73
2021/12/02 12:34:49;;;;;;;16.92;15.27;;;2.60;99.90;;;;;;5013242;28;20026;-73
2021/12/02 12:37:23;;;;;;;12.48;11.38;;;2.60;99.90;;;;;;5016205;28;20471;-71
2021/12/02 12:40:10;;;;;;;20.73;18.58;;;2.70;99.90;;;;;;5018945;28;20022;-71
2021/12/02 12:42:45;;;;;;;11.52;10.50;;;2.60;99.90;;;;;;5013986;28;20018;-72
2021/12/02 12:45:22;;;;;;;13.25;12.00;;;2.50;99.90;;;;;;5021619;28;20145;-73
2021/12/02 12:47:49;;;;;;;10.70;9.65;;;2.60;99.90;;;;;;5022822;28;20035;-73
2021/12/02 12:50:36;;;;;;;16.52;13.30;;;2.30;99.90;;;;;;5016279;28;20365;-72
2021/12/02 12:53:05;;;;;;;13.38;12.13;;;2.30;99.90;;;;;;5014053;28;20487;-71
2021/12/02 12:55:52;;;;;;;16.85;13.45;;;2.20;99.90;;;;;;5027242;28;20037;-72
2021/12/02 12:58:21;;;;;;;21.85;17.67;;;2.40;99.90;;;;;;5016174;28;20033;-71
2021/12/02 13:00:48;;;;;;;13.57;12.43;;;2.40;99.90;;;;;;5021553;28;20033;-73
2021/12/02 13:03:26;;;;;;;12.88;11.57;;;2.40;99.90;;;;;;5018268;28;20105;-71
2021/12/02 13:08:53;;;;;;;13.27;12.05;;;2.70;99.90;;;;;;5027001;28;20059;-72
2021/12/02 13:11:22;;;;;;;23.50;20.05;;;2.60;99.90;;;;;;5013901;28;20025;-72
2021/12/02 13:13:50;;;;;;;15.20;13.63;;;2.60;99.90;;;;;;5013834;28;20030;-72
2021/12/02 13:16:16;;;;;;;21.58;19.27;;;2.60;99.90;;;;;;5013700;28;20049;-71
2021/12/02 13:19:14;;;;;;;16.67;14.90;;;2.40;99.90;;;;;;5013126;28;20462;-72
2021/12/02 13:21:42;;;;;;;14.68;13.27;;;2.50;99.90;;;;;;5016297;28;20159;-72